sensor_id;sensor_type;location;lat;lon;timestamp;pressure;altitude;pressure_sealevel;temperature;humidity
37066;BME280;22981;43.080;25.550;2022-11-13T00:01:20;101264.11;;;9.68;90.75
37066;BME280;22981;43.080;25.550;2022-11-13T00:03:48;101256.92;;;9.69;90.69
37066;BME280;22981;43.080;25.550;2022-11-13T00:06:17;101254.91;;;9.67;90.64
37066;BME280;22981;43.080;25.550;2022-11-13T00:08:46;101258.41;;;9.67;90.71
37066;BME280;22981;43.080;25.550;2022-11-13T00:11:17;101257.93;;;9.68;90.69
37066;BME280;22981;43.080;25.550;2022-11-13T00:13:47;101256.59;;;9.68;90.73
37066;BME280;22981;43.080;25.550;2022-11-13T00:16:17;101257.43;;;9.64;90.68
37066;BME280;22981;43.080;25.550;2022-11-13T00:18:46;101249.41;;;9.60;90.79
37066;BME280;22981;43.080;25.550;2022-11-13T00:21:18;101254.58;;;9.62;90.90
37066;BME280;22981;43.080;25.550;2022-11-13T00:23:48;101253.56;;;9.63;90.87
37066;BME280;22981;43.080;25.550;2022-11-13T00:26:22;101250.89;;;9.63;90.82
37066;BME280;22981;43.080;25.550;2022-11-13T00:28:54;101255.73;;;9.63;90.83
37066;BME280;22981;43.080;25.550;2022-11-13T00:31:24;101252.08;;;9.64;90.80
37066;BME280;22981;43.080;25.550;2022-11-13T00:33:52;101261.95;;;9.64;90.76
37066;BME280;22981;43.080;25.550;2022-11-13T00:36:24;101260.61;;;9.64;90.75
37066;BME280;22981;43.080;25.550;2022-11-13T00:38:52;101258.59;;;9.66;90.76
37066;BME280;22981;43.080;25.550;2022-11-13T00:41:21;101255.08;;;9.65;90.72
37066;BME280;22981;43.080;25.550;2022-11-13T00:43:48;101254.58;;;9.66;90.69
37066;BME280;22981;43.080;25.550;2022-11-13T00:46:16;101257.43;;;9.64;90.69
37066;BME280;22981;43.080;25.550;2022-11-13T00:48:44;101249.41;;;9.60;90.71
37066;BME280;22981;43.080;25.550;2022-11-13T00:51:13;101249.56;;;9.59;90.82
37066;BME280;22981;43.080;25.550;2022-11-13T00:53:42;101254.58;;;9.62;90.86
37066;BME280;22981;43.080;25.550;2022-11-13T00:56:14;101255.92;;;9.62;90.80
37066;BME280;22981;43.080;25.550;2022-11-13T00:58:43;101248.23;;;9.54;90.73
37066;BME280;22981;43.080;25.550;2022-11-13T01:01:13;101244.08;;;9.52;90.96
37066;BME280;22981;43.080;25.550;2022-11-13T01:03:42;101251.77;;;9.55;91.08
37066;BME280;22981;43.080;25.550;2022-11-13T01:06:20;101249.42;;;9.56;91.12
37066;BME280;22981;43.080;25.550;2022-11-13T01:08:44;101244.39;;;9.57;91.14
37066;BME280;22981;43.080;25.550;2022-11-13T01:11:16;101242.05;;;9.58;91.07
37066;BME280;22981;43.080;25.550;2022-11-13T01:13:47;101237.89;;;9.60;91.09
37066;BME280;22981;43.080;25.550;2022-11-13T01:16:17;101237.52;;;9.63;91.05
37066;BME280;22981;43.080;25.550;2022-11-13T01:18:47;101235.03;;;9.61;91.01
37066;BME280;22981;43.080;25.550;2022-11-13T01:21:18;101228.16;;;9.63;91.00
37066;BME280;22981;43.080;25.550;2022-11-13T01:23:46;101230.19;;;9.61;90.93
37066;BME280;22981;43.080;25.550;2022-11-13T01:26:18;101228.53;;;9.56;90.94
37066;BME280;22981;43.080;25.550;2022-11-13T01:28:48;101229.70;;;9.53;91.16
37066;BME280;22981;43.080;25.550;2022-11-13T01:31:19;101228.54;;;9.51;91.29
37066;BME280;22981;43.080;25.550;2022-11-13T01:33:48;101229.87;;;9.56;91.32
37066;BME280;22981;43.080;25.550;2022-11-13T01:36:19;101224.84;;;9.57;91.24
37066;BME280;22981;43.080;25.550;2022-11-13T01:38:51;101221.99;;;9.58;91.20
37066;BME280;22981;43.080;25.550;2022-11-13T01:41:24;101220.33;;;9.57;91.21
37066;BME280;22981;43.080;25.550;2022-11-13T01:43:53;101221.67;;;9.57;91.20
37066;BME280;22981;43.080;25.550;2022-11-13T01:46:42;101225.17;;;9.58;91.21
37066;BME280;22981;43.080;25.550;2022-11-13T01:49:23;101224.02;;;9.60;91.16
37066;BME280;22981;43.080;25.550;2022-11-13T01:54:33;101220.16;;;9.59;90.96
37066;BME280;22981;43.080;25.550;2022-11-13T01:56:58;101221.49;;;9.54;91.09
37066;BME280;22981;43.080;25.550;2022-11-13T01:59:43;101219.83;;;9.53;91.21
37066;BME280;22981;43.080;25.550;2022-11-13T02:02:10;101227.53;;;9.52;91.27
37066;BME280;22981;43.080;25.550;2022-11-13T02:04:41;101219.33;;;9.50;91.20
37066;BME280;22981;43.080;25.550;2022-11-13T02:07:12;101220.84;;;9.48;91.28
37066;BME280;22981;43.080;25.550;2022-11-13T02:09:44;101215.17;;;9.47;91.21
37066;BME280;22981;43.080;25.550;2022-11-13T02:12:14;101215.18;;;9.43;91.21
37066;BME280;22981;43.080;25.550;2022-11-13T02:14:48;101212.52;;;9.39;91.41
37066;BME280;22981;43.080;25.550;2022-11-13T02:17:29;101215.69;;;9.43;91.44
37066;BME280;22981;43.080;25.550;2022-11-13T02:20:00;101212.83;;;9.44;91.42
37066;BME280;22981;43.080;25.550;2022-11-13T02:25:09;101219.34;;;9.46;91.19
37066;BME280;22981;43.080;25.550;2022-11-13T02:27:42;101211.82;;;9.45;91.17
37066;BME280;22981;43.080;25.550;2022-11-13T02:30:24;101213.52;;;9.46;91.02
37066;BME280;22981;43.080;25.550;2022-11-13T02:32:54;101214.16;;;9.48;90.65
37066;BME280;22981;43.080;25.550;2022-11-13T02:35:32;101211.49;;;9.48;90.51
37066;BME280;22981;43.080;25.550;2022-11-13T02:38:06;101215.83;;;9.49;90.47
37066;BME280;22981;43.080;25.550;2022-11-13T02:40:34;101213.33;;;9.48;90.37
37066;BME280;22981;43.080;25.550;2022-11-13T02:43:04;101205.13;;;9.49;90.38
37066;BME280;22981;43.080;25.550;2022-11-13T02:45:34;101204.62;;;9.50;90.19
37066;BME280;22981;43.080;25.550;2022-11-13T02:48:06;101210.80;;;9.50;89.98
37066;BME280;22981;43.080;25.550;2022-11-13T02:50:36;101203.64;;;9.51;89.74
37066;BME280;22981;43.080;25.550;2022-11-13T02:53:05;101209.47;;;9.50;89.55
37066;BME280;22981;43.080;25.550;2022-11-13T02:55:33;101208.64;;;9.50;89.48
37066;BME280;22981;43.080;25.550;2022-11-13T02:58:01;101214.81;;;9.50;89.46
37066;BME280;22981;43.080;25.550;2022-11-13T03:00:29;101210.80;;;9.50;89.33
37066;BME280;22981;43.080;25.550;2022-11-13T03:02:56;101215.17;;;9.51;89.02
37066;BME280;22981;43.080;25.550;2022-11-13T03:05:25;101219.00;;;9.53;88.86
37066;BME280;22981;43.080;25.550;2022-11-13T03:07:53;101211.16;;;9.51;88.74
37066;BME280;22981;43.080;25.550;2022-11-13T03:10:20;101210.16;;;9.48;88.67
37066;BME280;22981;43.080;25.550;2022-11-13T03:12:48;101215.00;;;9.49;88.61
37066;BME280;22981;43.080;25.550;2022-11-13T03:15:15;101210.34;;;9.47;88.28
37066;BME280;22981;43.080;25.550;2022-11-13T03:17:43;101204.48;;;9.47;88.17
37066;BME280;22981;43.080;25.550;2022-11-13T03:20:10;101203.47;;;9.48;88.15
37066;BME280;22981;43.080;25.550;2022-11-13T03:22:38;101209.65;;;9.49;88.17
37066;BME280;22981;43.080;25.550;2022-11-13T03:25:06;101208.31;;;9.49;88.15
37066;BME280;22981;43.080;25.550;2022-11-13T03:27:34;101211.31;;;9.50;88.14
37066;BME280;22981;43.080;25.550;2022-11-13T03:30:01;101208.81;;;9.48;88.17
37066;BME280;22981;43.080;25.550;2022-11-13T03:32:29;101209.65;;;9.49;88.23
37066;BME280;22981;43.080;25.550;2022-11-13T03:34:56;101209.14;;;9.49;88.22
37066;BME280;22981;43.080;25.550;2022-11-13T03:37:24;101206.80;;;9.50;88.22
37066;BME280;22981;43.080;25.550;2022-11-13T03:39:51;101208.12;;;9.50;88.25
37066;BME280;22981;43.080;25.550;2022-11-13T03:42:19;101213.48;;;9.50;88.24
37066;BME280;22981;43.080;25.550;2022-11-13T03:44:47;101209.65;;;9.49;88.23
37066;BME280;22981;43.080;25.550;2022-11-13T03:47:14;101208.31;;;9.49;88.24
37066;BME280;22981;43.080;25.550;2022-11-13T03:49:42;101211.81;;;9.49;88.21
37066;BME280;22981;43.080;25.550;2022-11-13T03:52:09;101215.32;;;9.50;88.20
37066;BME280;22981;43.080;25.550;2022-11-13T03:54:37;101216.51;;;9.51;88.11
37066;BME280;22981;43.080;25.550;2022-11-13T03:57:05;101217.02;;;9.51;87.97
37066;BME280;22981;43.080;25.550;2022-11-13T03:59:32;101218.67;;;9.52;87.84
37066;BME280;22981;43.080;25.550;2022-11-13T04:02:00;101223.34;;;9.50;87.68
37066;BME280;22981;43.080;25.550;2022-11-13T04:04:27;101221.50;;;9.50;87.50
37066;BME280;22981;43.080;25.550;2022-11-13T04:06:55;101215.00;;;9.49;87.44
37066;BME280;22981;43.080;25.550;2022-11-13T04:09:22;101217.34;;;9.48;87.53
37066;BME280;22981;43.080;25.550;2022-11-13T04:11:50;101223.52;;;9.48;87.57
37066;BME280;22981;43.080;25.550;2022-11-13T04:14:17;101218.68;;;9.48;87.49
37066;BME280;22981;43.080;25.550;2022-11-13T04:16:45;101221.03;;;9.47;87.45
37066;BME280;22981;43.080;25.550;2022-11-13T04:19:13;101229.55;;;9.46;87.44
37066;BME280;22981;43.080;25.550;2022-11-13T04:21:40;101225.88;;;9.43;87.29
37066;BME280;22981;43.080;25.550;2022-11-13T04:24:08;101227.22;;;9.39;87.24
37066;BME280;22981;43.080;25.550;2022-11-13T04:26:35;101218.69;;;9.40;87.35
37066;BME280;22981;43.080;25.550;2022-11-13T04:29:03;101224.87;;;9.40;87.39
37066;BME280;22981;43.080;25.550;2022-11-13T04:31:30;101224.87;;;9.40;87.46
37066;BME280;22981;43.080;25.550;2022-11-13T04:33:58;101221.03;;;9.43;87.47
37066;BME280;22981;43.080;25.550;2022-11-13T04:36:26;101222.01;;;9.46;87.50
37066;BME280;22981;43.080;25.550;2022-11-13T04:38:53;101221.53;;;9.46;87.46
37066;BME280;22981;43.080;25.550;2022-11-13T04:41:21;101222.01;;;9.46;87.46
37066;BME280;22981;43.080;25.550;2022-11-13T04:44:06;101214.17;;;9.44;87.43
37066;BME280;22981;43.080;25.550;2022-11-13T04:46:34;101217.34;;;9.44;87.39
37066;BME280;22981;43.080;25.550;2022-11-13T04:49:02;101226.70;;;9.44;87.50
37066;BME280;22981;43.080;25.550;2022-11-13T04:51:29;101222.02;;;9.42;87.50
37066;BME280;22981;43.080;25.550;2022-11-13T04:53:57;101217.17;;;9.41;87.33
37066;BME280;22981;43.080;25.550;2022-11-13T04:56:24;101214.50;;;9.41;87.28
37066;BME280;22981;43.080;25.550;2022-11-13T04:58:52;101218.51;;;9.41;87.20
37066;BME280;22981;43.080;25.550;2022-11-13T05:01:20;101221.04;;;9.39;87.23
37066;BME280;22981;43.080;25.550;2022-11-13T05:03:47;101220.67;;;9.42;87.35
37066;BME280;22981;43.080;25.550;2022-11-13T05:06:15;101212.84;;;9.40;87.48
37066;BME280;22981;43.080;25.550;2022-11-13T05:08:42;101219.84;;;9.41;87.50
37066;BME280;22981;43.080;25.550;2022-11-13T05:11:10;101216.67;;;9.42;87.53
37066;BME280;22981;43.080;25.550;2022-11-13T05:13:37;101220.20;;;9.42;87.58
37066;BME280;22981;43.080;25.550;2022-11-13T05:16:08;101218.86;;;9.42;87.58
37066;BME280;22981;43.080;25.550;2022-11-13T05:18:36;101222.37;;;9.43;87.55
37066;BME280;22981;43.080;25.550;2022-11-13T05:21:06;101220.20;;;9.42;87.54
37066;BME280;22981;43.080;25.550;2022-11-13T05:23:34;101217.34;;;9.44;87.45
37066;BME280;22981;43.080;25.550;2022-11-13T05:26:09;101218.69;;;9.44;87.34
37066;BME280;22981;43.080;25.550;2022-11-13T05:28:32;101218.36;;;9.43;87.32
37066;BME280;22981;43.080;25.550;2022-11-13T05:31:11;101222.52;;;9.41;87.27
37066;BME280;22981;43.080;25.550;2022-11-13T05:33:40;101226.20;;;9.40;87.31
37066;BME280;22981;43.080;25.550;2022-11-13T05:36:11;101223.02;;;9.41;87.28
37066;BME280;22981;43.080;25.550;2022-11-13T05:38:39;101222.38;;;9.39;87.25
37066;BME280;22981;43.080;25.550;2022-11-13T05:41:09;101219.84;;;9.41;87.20
37066;BME280;22981;43.080;25.550;2022-11-13T05:43:38;101218.69;;;9.40;87.15
37066;BME280;22981;43.080;25.550;2022-11-13T05:46:17;101221.69;;;9.41;87.13
37066;BME280;22981;43.080;25.550;2022-11-13T05:48:47;101223.20;;;9.39;87.02
37066;BME280;22981;43.080;25.550;2022-11-13T05:51:19;101230.22;;;9.36;87.04
37066;BME280;22981;43.080;25.550;2022-11-13T05:53:46;101222.20;;;9.36;87.13
37066;BME280;22981;43.080;25.550;2022-11-13T05:56:16;101229.38;;;9.36;87.17
37066;BME280;22981;43.080;25.550;2022-11-13T05:58:46;101232.38;;;9.37;87.47
37066;BME280;22981;43.080;25.550;2022-11-13T06:01:31;101217.18;;;9.29;87.52
37066;BME280;22981;43.080;25.550;2022-11-13T06:04:00;101233.22;;;9.37;87.50
37066;BME280;22981;43.080;25.550;2022-11-13T06:06:28;101232.23;;;9.38;87.30
37066;BME280;22981;43.080;25.550;2022-11-13T06:08:58;101232.05;;;9.40;87.22
37066;BME280;22981;43.080;25.550;2022-11-13T06:11:28;101231.73;;;9.43;87.17
37066;BME280;22981;43.080;25.550;2022-11-13T06:13:57;101233.56;;;9.46;87.11
37066;BME280;22981;43.080;25.550;2022-11-13T06:16:32;101233.20;;;9.49;87.12
37066;BME280;22981;43.080;25.550;2022-11-13T06:19:00;101239.05;;;9.53;87.04
37066;BME280;22981;43.080;25.550;2022-11-13T06:21:30;101231.35;;;9.58;87.02
37066;BME280;22981;43.080;25.550;2022-11-13T06:23:59;101235.36;;;9.58;86.79
37066;BME280;22981;43.080;25.550;2022-11-13T06:26:32;101237.53;;;9.59;86.78
37066;BME280;22981;43.080;25.550;2022-11-13T06:29:01;101236.69;;;9.62;86.78
37066;BME280;22981;43.080;25.550;2022-11-13T06:31:31;101245.72;;;9.65;86.68
37066;BME280;22981;43.080;25.550;2022-11-13T06:34:00;101236.55;;;9.64;86.41
37066;BME280;22981;43.080;25.550;2022-11-13T06:36:30;101232.36;;;9.57;86.13
37066;BME280;22981;43.080;25.550;2022-11-13T06:38:58;101237.07;;;9.47;86.04
37066;BME280;22981;43.080;25.550;2022-11-13T06:41:28;101238.41;;;9.43;86.10
37066;BME280;22981;43.080;25.550;2022-11-13T06:43:57;101240.08;;;9.40;85.99
37066;BME280;22981;43.080;25.550;2022-11-13T06:46:27;101238.73;;;9.36;85.78
37066;BME280;22981;43.080;25.550;2022-11-13T06:48:55;101237.73;;;9.33;85.81
37066;BME280;22981;43.080;25.550;2022-11-13T06:51:25;101234.91;;;9.30;85.76
37066;BME280;22981;43.080;25.550;2022-11-13T06:53:53;101243.44;;;9.30;85.75
37066;BME280;22981;43.080;25.550;2022-11-13T06:56:21;101240.26;;;9.26;85.62
37066;BME280;22981;43.080;25.550;2022-11-13T06:58:49;101229.06;;;9.22;85.63
37066;BME280;22981;43.080;25.550;2022-11-13T07:01:19;101226.06;;;9.25;85.65
37066;BME280;22981;43.080;25.550;2022-11-13T07:03:47;101233.39;;;9.27;85.57
37066;BME280;22981;43.080;25.550;2022-11-13T07:06:17;101216.70;;;9.25;85.49
37066;BME280;22981;43.080;25.550;2022-11-13T07:08:46;101224.55;;;9.35;85.38
37066;BME280;22981;43.080;25.550;2022-11-13T07:11:18;101223.53;;;9.36;85.34
37066;BME280;22981;43.080;25.550;2022-11-13T07:13:46;101225.20;;;9.37;85.22
37066;BME280;22981;43.080;25.550;2022-11-13T07:16:15;101222.20;;;9.36;85.26
37066;BME280;22981;43.080;25.550;2022-11-13T07:18:43;101223.86;;;9.37;85.28
37066;BME280;22981;43.080;25.550;2022-11-13T07:21:11;101227.72;;;9.39;85.23
37066;BME280;22981;43.080;25.550;2022-11-13T07:23:39;101228.88;;;9.40;85.09
37066;BME280;22981;43.080;25.550;2022-11-13T07:26:12;101223.86;;;9.37;84.95
37066;BME280;22981;43.080;25.550;2022-11-13T07:28:39;101217.67;;;9.41;84.96
37066;BME280;22981;43.080;25.550;2022-11-13T07:31:08;101214.50;;;9.45;84.99
37066;BME280;22981;43.080;25.550;2022-11-13T07:33:36;101213.83;;;9.51;84.89
37066;BME280;22981;43.080;25.550;2022-11-13T07:36:05;101212.14;;;9.50;84.46
37066;BME280;22981;43.080;25.550;2022-11-13T07:38:33;101204.30;;;9.49;84.48
37066;BME280;22981;43.080;25.550;2022-11-13T07:41:01;101208.64;;;9.50;84.40
37066;BME280;22981;43.080;25.550;2022-11-13T07:43:28;101206.78;;;9.54;84.50
37066;BME280;22981;43.080;25.550;2022-11-13T07:45:58;101208.78;;;9.69;84.36
37066;BME280;22981;43.080;25.550;2022-11-13T07:48:26;101203.23;;;9.74;84.06
37066;BME280;22981;43.080;25.550;2022-11-13T07:50:53;101198.89;;;9.77;83.85
37066;BME280;22981;43.080;25.550;2022-11-13T07:53:21;101202.39;;;9.82;83.74
37066;BME280;22981;43.080;25.550;2022-11-13T07:55:49;101203.73;;;9.82;83.36
37066;BME280;22981;43.080;25.550;2022-11-13T07:58:17;101197.36;;;9.83;83.31
37066;BME280;22981;43.080;25.550;2022-11-13T08:00:44;101200.03;;;9.87;83.03
37066;BME280;22981;43.080;25.550;2022-11-13T08:03:14;101192.63;;;9.93;83.08
37066;BME280;22981;43.080;25.550;2022-11-13T08:05:42;101196.16;;;9.98;82.88
37066;BME280;22981;43.080;25.550;2022-11-13T08:08:13;101186.94;;;9.96;82.75
37066;BME280;22981;43.080;25.550;2022-11-13T08:10:41;101194.31;;;9.98;82.90
37066;BME280;22981;43.080;25.550;2022-11-13T08:13:09;101196.30;;;10.00;82.71
37066;BME280;22981;43.080;25.550;2022-11-13T08:15:37;101192.78;;;10.00;82.69
37066;BME280;22981;43.080;25.550;2022-11-13T08:18:05;101183.39;;;10.08;82.72
37066;BME280;22981;43.080;25.550;2022-11-13T08:20:33;101185.31;;;10.31;82.52
37066;BME280;22981;43.080;25.550;2022-11-13T08:23:02;101185.49;;;10.56;81.84
37066;BME280;22981;43.080;25.550;2022-11-13T08:25:31;101184.59;;;10.68;81.21
37066;BME280;22981;43.080;25.550;2022-11-13T08:27:59;101180.64;;;10.78;81.06
37066;BME280;22981;43.080;25.550;2022-11-13T08:30:28;101176.66;;;10.97;80.77
37066;BME280;22981;43.080;25.550;2022-11-13T08:32:55;101171.48;;;11.15;80.16
37066;BME280;22981;43.080;25.550;2022-11-13T08:35:23;101172.75;;;11.23;79.94
37066;BME280;22981;43.080;25.550;2022-11-13T08:37:50;101169.28;;;11.33;79.80
37066;BME280;22981;43.080;25.550;2022-11-13T08:40:18;101163.20;;;11.39;79.65
37066;BME280;22981;43.080;25.550;2022-11-13T08:42:46;101164.71;;;11.38;79.50
37066;BME280;22981;43.080;25.550;2022-11-13T08:45:13;101162.42;;;11.49;79.34
37066;BME280;22981;43.080;25.550;2022-11-13T08:47:41;101164.84;;;11.74;78.42
37066;BME280;22981;43.080;25.550;2022-11-13T08:50:09;101162.26;;;11.95;77.92
37066;BME280;22981;43.080;25.550;2022-11-13T08:52:36;101169.08;;;11.98;77.62
37066;BME280;22981;43.080;25.550;2022-11-13T08:55:04;101167.99;;;11.92;77.13
37066;BME280;22981;43.080;25.550;2022-11-13T08:57:31;101164.54;;;12.13;76.96
37066;BME280;22981;43.080;25.550;2022-11-13T08:59:59;101157.92;;;12.41;76.28
37066;BME280;22981;43.080;25.550;2022-11-13T09:02:27;101158.66;;;12.61;75.33
37066;BME280;22981;43.080;25.550;2022-11-13T09:04:54;101156.03;;;12.78;74.92
37066;BME280;22981;43.080;25.550;2022-11-13T09:07:22;101155.63;;;12.92;74.29
37066;BME280;22981;43.080;25.550;2022-11-13T09:09:50;101143.77;;;13.08;73.86
37066;BME280;22981;43.080;25.550;2022-11-13T09:12:17;101142.80;;;13.26;73.64
37066;BME280;22981;43.080;25.550;2022-11-13T09:14:45;101144.07;;;13.47;73.20
37066;BME280;22981;43.080;25.550;2022-11-13T09:17:12;101141.66;;;13.59;72.68
37066;BME280;22981;43.080;25.550;2022-11-13T09:19:40;101129.17;;;13.62;72.34
37066;BME280;22981;43.080;25.550;2022-11-13T09:22:07;101133.44;;;13.50;71.78
37066;BME280;22981;43.080;25.550;2022-11-13T09:24:35;101133.02;;;13.36;72.09
37066;BME280;22981;43.080;25.550;2022-11-13T09:27:03;101131.08;;;13.40;72.47
37066;BME280;22981;43.080;25.550;2022-11-13T09:29:30;101118.41;;;13.62;72.38
37066;BME280;22981;43.080;25.550;2022-11-13T09:31:58;101108.02;;;13.83;72.25
37066;BME280;22981;43.080;25.550;2022-11-13T09:34:26;101104.89;;;14.03;71.80
37066;BME280;22981;43.080;25.550;2022-11-13T09:36:54;101092.86;;;13.99;70.47
37066;BME280;22981;43.080;25.550;2022-11-13T09:39:21;101098.77;;;13.92;70.41
37066;BME280;22981;43.080;25.550;2022-11-13T09:41:58;101091.25;;;13.81;70.20
37066;BME280;22981;43.080;25.550;2022-11-13T09:47:20;101088.67;;;13.60;70.55
37066;BME280;22981;43.080;25.550;2022-11-13T09:54:13;101069.88;;;14.03;70.06
37066;BME280;22981;43.080;25.550;2022-11-13T09:59:40;101061.80;;;14.03;70.00
37066;BME280;22981;43.080;25.550;2022-11-13T10:05:04;101058.69;;;13.93;70.08
37066;BME280;22981;43.080;25.550;2022-11-13T10:07:53;101049.47;;;13.98;69.99
37066;BME280;22981;43.080;25.550;2022-11-13T10:12:59;101045.77;;;14.13;69.76
37066;BME280;22981;43.080;25.550;2022-11-13T10:15:27;101033.56;;;14.10;69.13
37066;BME280;22981;43.080;25.550;2022-11-13T10:20:40;101030.13;;;14.06;69.05
37066;BME280;22981;43.080;25.550;2022-11-13T10:23:25;101027.56;;;14.15;68.89
37066;BME280;22981;43.080;25.550;2022-11-13T10:25:44;101026.52;;;14.16;68.58
37066;BME280;22981;43.080;25.550;2022-11-13T10:28:15;101020.91;;;14.17;68.53
37066;BME280;22981;43.080;25.550;2022-11-13T10:34:05;101017.20;;;14.25;68.44
37066;BME280;22981;43.080;25.550;2022-11-13T10:36:50;101006.75;;;14.33;68.04
37066;BME280;22981;43.080;25.550;2022-11-13T10:39:15;101009.77;;;14.40;68.12
37066;BME280;22981;43.080;25.550;2022-11-13T10:41:48;101005.21;;;14.47;67.87
37066;BME280;22981;43.080;25.550;2022-11-13T10:44:20;100992.16;;;14.51;67.86
37066;BME280;22981;43.080;25.550;2022-11-13T10:46:48;100992.48;;;14.65;68.12
37066;BME280;22981;43.080;25.550;2022-11-13T10:49:21;100981.78;;;14.74;67.98
37066;BME280;22981;43.080;25.550;2022-11-13T10:51:57;100989.43;;;14.84;67.83
37066;BME280;22981;43.080;25.550;2022-11-13T10:54:28;100981.64;;;14.92;67.35
37066;BME280;22981;43.080;25.550;2022-11-13T10:56:58;100972.50;;;14.99;67.38
37066;BME280;22981;43.080;25.550;2022-11-13T10:59:38;100970.52;;;15.04;67.05
37066;BME280;22981;43.080;25.550;2022-11-13T11:02:17;100962.91;;;15.10;66.83
37066;BME280;22981;43.080;25.550;2022-11-13T11:04:45;100964.84;;;15.19;66.67
37066;BME280;22981;43.080;25.550;2022-11-13T11:07:16;100960.67;;;15.30;66.69
37066;BME280;22981;43.080;25.550;2022-11-13T11:09:44;100943.37;;;15.44;66.71
37066;BME280;22981;43.080;25.550;2022-11-13T11:12:15;100948.39;;;15.56;66.86
37066;BME280;22981;43.080;25.550;2022-11-13T11:15:00;100944.16;;;15.73;66.74
37066;BME280;22981;43.080;25.550;2022-11-13T11:23:16;100939.23;;;15.95;66.78
37066;BME280;22981;43.080;25.550;2022-11-13T11:25:36;100942.56;;;15.97;66.59
37066;BME280;22981;43.080;25.550;2022-11-13T11:28:22;100937.59;;;15.94;66.66
37066;BME280;22981;43.080;25.550;2022-11-13T11:30:52;100939.77;;;15.95;66.61
37066;BME280;22981;43.080;25.550;2022-11-13T11:33:51;100932.48;;;15.95;66.72
37066;BME280;22981;43.080;25.550;2022-11-13T11:36:39;100936.41;;;15.99;66.59
37066;BME280;22981;43.080;25.550;2022-11-13T11:42:36;100935.84;;;16.07;66.24
37066;BME280;22981;43.080;25.550;2022-11-13T11:45:35;100939.09;;;16.15;65.94
37066;BME280;22981;43.080;25.550;2022-11-13T11:47:59;100937.83;;;16.27;65.76
37066;BME280;22981;43.080;25.550;2022-11-13T11:50:37;100926.45;;;16.34;65.45
37066;BME280;22981;43.080;25.550;2022-11-13T11:53:07;100928.33;;;16.34;65.22
37066;BME280;22981;43.080;25.550;2022-11-13T11:55:59;100929.56;;;16.22;65.37
37066;BME280;22981;43.080;25.550;2022-11-13T11:58:59;100924.11;;;16.03;65.46
37066;BME280;22981;43.080;25.550;2022-11-13T12:09:34;100920.95;;;15.43;67.16
37066;BME280;22981;43.080;25.550;2022-11-13T12:12:36;100923.47;;;15.54;67.19
37066;BME280;22981;43.080;25.550;2022-11-13T12:15:00;100924.34;;;15.70;66.70
37066;BME280;22981;43.080;25.550;2022-11-13T12:17:40;100925.50;;;15.72;66.41
37066;BME280;22981;43.080;25.550;2022-11-13T12:20:17;100922.66;;;15.76;66.31
37066;BME280;22981;43.080;25.550;2022-11-13T12:28:18;100917.89;;;16.03;65.94
37066;BME280;22981;43.080;25.550;2022-11-13T12:33:39;100923.36;;;16.06;65.64
37066;BME280;22981;43.080;25.550;2022-11-13T12:36:08;100921.67;;;16.11;65.52
37066;BME280;22981;43.080;25.550;2022-11-13T12:38:57;100928.19;;;16.13;65.34
37066;BME280;22981;43.080;25.550;2022-11-13T12:41:31;100920.02;;;16.10;64.90
37066;BME280;22981;43.080;25.550;2022-11-13T12:46:36;100928.90;;;16.26;64.23
37066;BME280;22981;43.080;25.550;2022-11-13T12:49:21;100923.82;;;16.27;63.71
37066;BME280;22981;43.080;25.550;2022-11-13T12:51:52;100921.84;;;16.25;63.63
37066;BME280;22981;43.080;25.550;2022-11-13T12:54:23;100925.39;;;16.35;63.51
37066;BME280;22981;43.080;25.550;2022-11-13T12:56:44;100924.58;;;16.44;63.10
37066;BME280;22981;43.080;25.550;2022-11-13T13:01:51;100923.18;;;16.50;62.51
37066;BME280;22981;43.080;25.550;2022-11-13T13:07:30;100914.11;;;16.63;61.90
37066;BME280;22981;43.080;25.550;2022-11-13T13:10:26;100916.88;;;16.66;61.63
37066;BME280;22981;43.080;25.550;2022-11-13T13:15:36;100910.44;;;16.67;61.43
37066;BME280;22981;43.080;25.550;2022-11-13T13:21:07;100912.26;;;16.73;60.86
37066;BME280;22981;43.080;25.550;2022-11-13T13:23:38;100909.38;;;16.68;60.90
37066;BME280;22981;43.080;25.550;2022-11-13T13:26:20;100907.62;;;16.80;60.71
37066;BME280;22981;43.080;25.550;2022-11-13T13:28:56;100908.34;;;16.87;60.33
37066;BME280;22981;43.080;25.550;2022-11-13T13:31:44;100908.67;;;16.88;60.39
37066;BME280;22981;43.080;25.550;2022-11-13T13:34:36;100913.25;;;16.88;60.18
37066;BME280;22981;43.080;25.550;2022-11-13T13:45:20;100922.88;;;16.74;59.60
37066;BME280;22981;43.080;25.550;2022-11-13T13:47:49;100921.45;;;16.56;59.69
37066;BME280;22981;43.080;25.550;2022-11-13T13:50:26;100919.41;;;16.42;59.98
37066;BME280;22981;43.080;25.550;2022-11-13T13:52:56;100923.16;;;16.32;60.12
37066;BME280;22981;43.080;25.550;2022-11-13T13:55:27;100915.37;;;16.17;60.27
37066;BME280;22981;43.080;25.550;2022-11-13T13:57:55;100914.09;;;16.11;60.54
37066;BME280;22981;43.080;25.550;2022-11-13T14:00:23;100915.72;;;16.02;60.55
37066;BME280;22981;43.080;25.550;2022-11-13T14:02:52;100916.58;;;15.96;60.63
37066;BME280;22981;43.080;25.550;2022-11-13T14:07:53;100918.98;;;15.80;60.79
37066;BME280;22981;43.080;25.550;2022-11-13T14:10:25;100907.55;;;15.68;61.00
37066;BME280;22981;43.080;25.550;2022-11-13T14:12:54;100913.08;;;15.58;61.22
37066;BME280;22981;43.080;25.550;2022-11-13T14:15:25;100910.58;;;15.40;61.55
37066;BME280;22981;43.080;25.550;2022-11-13T14:20:47;100904.20;;;15.12;62.39
37066;BME280;22981;43.080;25.550;2022-11-13T14:23:23;100911.00;;;14.99;62.66